Terminal Aerodrome Forecast
Issued by NWS

Home | Current Version | Previous Version | Text Only | Print | Product List | Glossary On
Versions: 1 2 3 4 5 6 7 8 9 10 11 12 13 14 15 16
000
FTUS43 KOAX 231135
TAFSNY
TAF
KSNY 231135Z 2312/2412 21007KT P6SM SCT250
     FM232000 36010KT P6SM FEW250
     FM232300 04009KT P6SM FEW250=

USA.gov is the U.S. government's official web portal to all federal, state and local government web resources and services.